Barrhead, United Kingdom
Current Conditions -  °F | °C
As of 10:20 AM on Tuesday 21 Oct 2014 (Local Time) from EGPF Reporting Station
Broken Clouds Broken Clouds  
Wind Chill: 41°   Ceiling: 3100
Heat Index: 48°   Visibility: 6mi
Dew Point: 39°   Wind: 20mph
Humidity: 71%   Direction: 280°W
Pressure: 29.38"   Gusts: 31mph
Location:  55.8°N, 4.39°W
Report Text: EGPF 210920Z AUTO 28017G27KT 9999 BKN031/// //////CB 09/04 Q0995
Loading
Personal Weather Stations






























Interactive Weather Map
Tropical Storm Tracking
New forecast layout! Learn more

10-Day Weather Forecast

Advertisements
Track Severe Weather on mobile